createdAt,value
2018-05-18T00:00:36.413Z,0
2018-05-18T00:01:36.401Z,0
2018-05-18T00:02:36.383Z,0
2018-05-18T00:03:36.106Z,0
2018-05-18T00:04:36.086Z,0
2018-05-18T00:05:36.348Z,0
2018-05-18T00:06:36.070Z,0
2018-05-18T00:07:36.048Z,0
2018-05-18T00:08:36.576Z,0
2018-05-18T00:09:36.549Z,0
2018-05-18T00:10:35.735Z,0
2018-05-18T00:11:36.251Z,0
2018-05-18T00:12:35.968Z,0
2018-05-18T00:13:35.958Z,0
2018-05-18T00:14:35.677Z,0
2018-05-18T00:15:35.669Z,0
2018-05-18T00:16:35.850Z,0
2018-05-18T00:17:36.163Z,0
2018-05-18T00:18:36.151Z,0
2018-05-18T00:19:35.882Z,0
2018-05-18T00:20:35.860Z,0
2018-05-18T00:21:35.840Z,0
2018-05-18T00:22:35.823Z,0
2018-05-18T00:23:35.805Z,0
2018-05-18T00:24:35.536Z,0
2018-05-18T00:25:35.776Z,0
2018-05-18T00:26:36.026Z,0
2018-05-18T00:27:36.026Z,0
2018-05-18T00:28:36.008Z,0
2018-05-18T00:29:36.283Z,0
2018-05-18T00:30:35.440Z,0
2018-05-18T00:31:35.678Z,0
2018-05-18T00:32:35.926Z,0
2018-05-18T00:33:35.715Z,0
2018-05-18T00:34:35.920Z,0
2018-05-18T00:35:35.637Z,0
2018-05-18T00:36:35.610Z,0
2018-05-18T00:37:35.337Z,0
2018-05-18T00:38:35.331Z,0
2018-05-18T00:39:35.565Z,0
2018-05-18T00:40:35.285Z,0
2018-05-18T00:41:35.536Z,0
2018-05-18T00:42:35.526Z,0
2018-05-18T00:43:35.777Z,0
2018-05-18T00:44:36.034Z,0
2018-05-18T00:45:35.735Z,0
2018-05-18T00:46:35.724Z,0
2018-05-18T00:47:35.726Z,0
2018-05-18T00:48:35.690Z,0
2018-05-18T00:49:35.948Z,0
2018-05-18T00:50:35.946Z,0
2018-05-18T00:51:35.662Z,0
2018-05-18T00:52:35.106Z,0
2018-05-18T00:53:35.368Z,0
2018-05-18T00:54:35.611Z,0
2018-05-18T00:55:35.867Z,0
2018-05-18T00:56:35.578Z,0
2018-05-18T00:57:35.886Z,0
2018-05-18T00:58:35.545Z,0
2018-05-18T00:59:35.270Z,0
2018-05-18T01:00:35.540Z,0
2018-05-18T01:01:35.247Z,0
2018-05-18T01:02:34.967Z,0
2018-05-18T01:03:35.210Z,0
2018-05-18T01:04:35.573Z,0
2018-05-18T01:05:35.460Z,0
2018-05-18T01:06:34.895Z,0
2018-05-18T01:07:35.413Z,0
2018-05-18T01:08:34.867Z,0
2018-05-18T01:09:35.116Z,0
2018-05-18T01:10:35.394Z,0
2018-05-18T01:11:34.830Z,0
2018-05-18T01:12:35.341Z,0
2018-05-18T01:13:35.055Z,0
2018-05-18T01:14:35.311Z,0
2018-05-18T01:15:35.559Z,0
2018-05-18T01:16:35.010Z,0
2018-05-18T01:17:35.003Z,0
2018-05-18T01:18:35.259Z,0
2018-05-18T01:19:35.233Z,0
2018-05-18T01:20:34.961Z,0
2018-05-18T01:21:34.934Z,0
2018-05-18T01:22:34.925Z,0
2018-05-18T01:23:34.650Z,0
2018-05-18T01:24:35.156Z,0
2018-05-18T01:25:34.882Z,0
2018-05-18T01:26:35.392Z,0
2018-05-18T01:27:35.126Z,0
2018-05-18T01:28:34.837Z,0
2018-05-18T01:29:34.806Z,0
2018-05-18T01:30:35.077Z,0
2018-05-18T01:31:34.797Z,0
2018-05-18T01:32:34.798Z,0
2018-05-18T01:33:35.030Z,0
2018-05-18T01:34:35.280Z,0
2018-05-18T01:35:34.194Z,0
2018-05-18T01:36:34.979Z,0
2018-05-18T01:37:35.223Z,0
2018-05-18T01:38:34.684Z,0
2018-05-18T01:39:35.224Z,0
2018-05-18T01:40:34.707Z,0
2018-05-18T01:41:34.998Z,0
2018-05-18T01:42:34.888Z,0
2018-05-18T01:43:34.615Z,0
2018-05-18T01:44:34.603Z,0
2018-05-18T01:45:34.587Z,0
2018-05-18T01:46:34.826Z,0
2018-05-18T01:47:34.810Z,0
2018-05-18T01:48:34.538Z,0
2018-05-18T01:49:34.257Z,0
2018-05-18T01:50:34.493Z,0
2018-05-18T01:51:34.761Z,0
2018-05-18T01:52:35.004Z,0
2018-05-18T01:53:34.481Z,0
2018-05-18T01:54:34.440Z,0
2018-05-18T01:55:35.053Z,0
2018-05-18T01:56:34.424Z,0
2018-05-18T01:57:34.924Z,0
2018-05-18T01:58:34.645Z,0
2018-05-18T01:59:34.628Z,0
2018-05-18T02:00:34.698Z,0
2018-05-18T02:01:34.605Z,0
2018-05-18T02:02:34.315Z,0
2018-05-18T02:03:34.565Z,0
2018-05-18T02:04:34.590Z,0
2018-05-18T02:05:34.536Z,0
2018-05-18T02:06:34.245Z,0
2018-05-18T02:07:34.247Z,0
2018-05-18T02:08:33.690Z,0
2018-05-18T02:09:34.215Z,0
2018-05-18T02:10:34.511Z,0
2018-05-18T02:11:33.919Z,0
2018-05-18T02:12:34.168Z,0
2018-05-18T02:13:33.884Z,0
2018-05-18T02:14:34.132Z,0
2018-05-18T02:15:34.376Z,0
2018-05-18T02:16:33.832Z,0
2018-05-18T02:17:34.548Z,0
2018-05-18T02:18:34.075Z,0
2018-05-18T02:19:33.787Z,0
2018-05-18T02:20:34.313Z,0
2018-05-18T02:21:34.288Z,0
2018-05-18T02:22:34.007Z,0
2018-05-18T02:23:34.255Z,0
2018-05-18T02:24:33.718Z,0
2018-05-18T02:25:34.494Z,0
2018-05-18T02:26:33.944Z,0
2018-05-18T02:27:33.665Z,0
2018-05-18T02:28:34.186Z,0
2018-05-18T02:29:33.637Z,0
2018-05-18T02:30:33.889Z,0
2018-05-18T02:31:34.139Z,0
2018-05-18T02:32:34.120Z,0
2018-05-18T02:33:33.837Z,0
2018-05-18T02:34:34.099Z,0
2018-05-18T02:35:33.551Z,0
2018-05-18T02:36:34.076Z,0
2018-05-18T02:37:34.353Z,0
2018-05-18T02:38:33.508Z,0
2018-05-18T02:39:34.242Z,0
2018-05-18T02:40:33.760Z,0
2018-05-18T02:41:33.721Z,0
2018-05-18T02:42:33.966Z,0
2018-05-18T02:43:34.304Z,0
2018-05-18T02:44:33.683Z,0
2018-05-18T02:45:33.930Z,0
2018-05-18T02:46:33.899Z,0
2018-05-18T02:47:33.914Z,0
2018-05-18T02:48:33.886Z,0
2018-05-18T02:49:33.858Z,0
2018-05-18T02:50:33.310Z,0
2018-05-18T02:51:33.293Z,0
2018-05-18T02:52:34.198Z,0
2018-05-18T02:53:33.544Z,0
2018-05-18T02:54:32.986Z,0
2018-05-18T02:55:33.504Z,0
2018-05-18T02:56:33.751Z,0
2018-05-18T02:57:34.046Z,0
2018-05-18T02:58:33.451Z,0
2018-05-18T02:59:33.432Z,0
2018-05-18T03:00:33.695Z,0
2018-05-18T03:01:33.687Z,0
2018-05-18T03:02:33.396Z,0
2018-05-18T03:03:33.634Z,0
2018-05-18T03:04:33.636Z,0
2018-05-18T03:05:33.888Z,0
2018-05-18T03:06:33.348Z,0
2018-05-18T03:07:33.582Z,0
2018-05-18T03:08:33.580Z,0
2018-05-18T03:09:33.559Z,0
2018-05-18T03:10:33.276Z,0
2018-05-18T03:11:33.253Z,0
2018-05-18T03:12:33.255Z,0
2018-05-18T03:13:33.490Z,0
2018-05-18T03:14:33.202Z,0
2018-05-18T03:15:33.458Z,0
2018-05-18T03:16:33.446Z,0
2018-05-18T03:17:32.629Z,0
2018-05-18T03:18:33.413Z,0
2018-05-18T03:19:33.380Z,0
2018-05-18T03:20:33.367Z,0
2018-05-18T03:21:33.353Z,0
2018-05-18T03:22:33.332Z,0
2018-05-18T03:23:33.604Z,0
2018-05-18T03:24:32.782Z,0
2018-05-18T03:25:33.024Z,0
2018-05-18T03:26:33.365Z,0
2018-05-18T03:27:33.536Z,0
2018-05-18T03:28:33.253Z,0
2018-05-18T03:29:32.962Z,0
2018-05-18T03:30:33.512Z,0
2018-05-18T03:31:32.947Z,0
2018-05-18T03:32:32.927Z,0
2018-05-18T03:33:33.176Z,0
2018-05-18T03:34:32.899Z,0
2018-05-18T03:35:33.135Z,0
2018-05-18T03:36:33.134Z,0
2018-05-18T03:37:32.839Z,0
2018-05-18T03:38:32.585Z,0
2018-05-18T03:39:32.539Z,0
2018-05-18T03:40:32.792Z,0
2018-05-18T03:41:32.516Z,0
2018-05-18T03:42:33.283Z,0
2018-05-18T03:43:32.485Z,0
2018-05-18T03:44:32.728Z,0
2018-05-18T03:45:32.463Z,0
2018-05-18T03:46:32.714Z,0
2018-05-18T03:47:33.224Z,0
2018-05-18T03:48:32.671Z,0
2018-05-18T03:49:32.124Z,0
2018-05-18T03:50:32.640Z,0
2018-05-18T03:51:32.892Z,5
2018-05-18T03:52:32.684Z,5
2018-05-18T03:53:33.127Z,5
2018-05-18T03:54:32.839Z,5
2018-05-18T03:55:32.365Z,5
2018-05-18T03:56:32.547Z,5
2018-05-18T03:57:32.533Z,5
2018-05-18T03:58:33.042Z,5
2018-05-18T03:59:32.761Z,5
2018-05-18T04:00:32.497Z,5
2018-05-18T04:01:32.759Z,5
2018-05-18T04:02:32.454Z,5
2018-05-18T04:03:32.165Z,5
2018-05-18T04:04:32.431Z,5
2018-05-18T04:05:32.407Z,5
2018-05-18T04:06:32.403Z,5
2018-05-18T04:07:32.368Z,5
2018-05-18T04:08:32.355Z,10
2018-05-18T04:09:32.347Z,10
2018-05-18T04:10:32.460Z,10
2018-05-18T04:11:32.313Z,10
2018-05-18T04:12:32.559Z,10
2018-05-18T04:13:32.012Z,10
2018-05-18T04:14:32.664Z,10
2018-05-18T04:15:31.988Z,10
2018-05-18T04:16:33.322Z,10
2018-05-18T04:17:32.684Z,10
2018-05-18T04:18:32.575Z,10
2018-05-18T04:19:32.488Z,10
2018-05-18T04:20:32.203Z,10
2018-05-18T04:21:32.146Z,10
2018-05-18T04:22:32.147Z,10
2018-05-18T04:23:32.402Z,15
2018-05-18T04:24:32.104Z,15
2018-05-18T04:25:32.095Z,15
2018-05-18T04:26:31.811Z,15
2018-05-18T04:27:32.053Z,15
2018-05-18T04:28:31.778Z,15
2018-05-18T04:29:31.769Z,15
2018-05-18T04:30:32.440Z,15
2018-05-18T04:31:31.732Z,15
2018-05-18T04:32:31.986Z,15
2018-05-18T04:33:31.428Z,15
2018-05-18T04:34:31.676Z,15
2018-05-18T04:35:32.195Z,15
2018-05-18T04:36:31.912Z,15
2018-05-18T04:37:32.165Z,15
2018-05-18T04:38:31.891Z,15
2018-05-18T04:39:31.866Z,15
2018-05-18T04:40:31.584Z,15
2018-05-18T04:41:31.868Z,20
2018-05-18T04:42:32.085Z,20
2018-05-18T04:43:32.294Z,20
2018-05-18T04:44:32.336Z,20
2018-05-18T04:45:32.040Z,20
2018-05-18T04:46:31.759Z,20
2018-05-18T04:47:32.003Z,20
2018-05-18T04:48:31.451Z,20
2018-05-18T04:49:31.722Z,20
2018-05-18T04:50:31.694Z,20
2018-05-18T04:51:31.951Z,20
2018-05-18T04:52:31.943Z,20
2018-05-18T04:53:31.652Z,20
2018-05-18T04:54:31.700Z,20
2018-05-18T04:55:31.089Z,20
2018-05-18T04:56:31.871Z,20
2018-05-18T04:57:31.590Z,20
2018-05-18T04:58:32.097Z,20
2018-05-18T04:59:32.097Z,20
2018-05-18T05:00:31.538Z,25
2018-05-18T05:01:31.527Z,25
2018-05-18T05:02:31.772Z,25
2018-05-18T05:03:31.752Z,30
2018-05-18T05:04:31.748Z,30
2018-05-18T05:05:30.961Z,30
2018-05-18T05:06:31.706Z,30
2018-05-18T05:07:31.164Z,30
2018-05-18T05:08:31.946Z,30
2018-05-18T05:09:31.392Z,30
2018-05-18T05:10:31.633Z,35
2018-05-18T05:11:31.886Z,35
2018-05-18T05:12:31.176Z,35
2018-05-18T05:13:31.592Z,35
2018-05-18T05:14:31.327Z,35
2018-05-18T05:15:30.775Z,35
2018-05-18T05:16:31.551Z,35
2018-05-18T05:17:31.009Z,35
2018-05-18T05:18:30.995Z,35
2018-05-18T05:19:31.236Z,40
2018-05-18T05:20:31.218Z,40
2018-05-18T05:21:31.206Z,40
2018-05-18T05:22:31.448Z,40
2018-05-18T05:23:31.496Z,40
2018-05-18T05:24:31.175Z,40
2018-05-18T05:25:31.419Z,40
2018-05-18T05:26:31.660Z,45
2018-05-18T05:27:30.847Z,45
2018-05-18T05:28:30.829Z,45
2018-05-18T05:29:31.080Z,45
2018-05-18T05:30:31.263Z,45
2018-05-18T05:31:31.323Z,45
2018-05-18T05:32:31.296Z,45
2018-05-18T05:33:31.282Z,55
2018-05-18T05:34:31.000Z,55
2018-05-18T05:35:30.727Z,60
2018-05-18T05:36:30.974Z,65
2018-05-18T05:37:31.479Z,65
2018-05-18T05:38:30.938Z,65
2018-05-18T05:39:31.456Z,70
2018-05-18T05:40:30.647Z,70
2018-05-18T05:41:31.168Z,70
2018-05-18T05:42:31.240Z,70
2018-05-18T05:43:31.392Z,70
2018-05-18T05:44:30.852Z,70
2018-05-18T05:45:30.566Z,75
2018-05-18T05:46:30.831Z,75
2018-05-18T05:47:30.802Z,75
2018-05-18T05:48:31.050Z,75
2018-05-18T05:49:31.039Z,80
2018-05-18T05:50:31.015Z,75
2018-05-18T05:51:30.732Z,75
2018-05-18T05:52:30.452Z,75
2018-05-18T05:53:31.647Z,80
2018-05-18T05:54:30.953Z,80
2018-05-18T05:55:30.946Z,80
2018-05-18T05:56:30.405Z,80
2018-05-18T05:57:30.655Z,90
2018-05-18T05:58:31.534Z,90
2018-05-18T05:59:30.355Z,90
2018-05-18T06:00:30.072Z,90
2018-05-18T06:01:30.326Z,90
2018-05-18T06:02:30.457Z,90
2018-05-18T06:03:30.308Z,85
2018-05-18T06:04:31.078Z,90
2018-05-18T06:05:30.774Z,95
2018-05-18T06:06:31.063Z,100
2018-05-18T06:07:31.044Z,100
2018-05-18T06:08:31.013Z,105
2018-05-18T06:09:31.000Z,110
2018-05-18T06:10:30.456Z,115
2018-05-18T06:11:30.970Z,120
2018-05-18T06:12:30.511Z,115
2018-05-18T06:13:30.675Z,110
2018-05-18T06:14:30.660Z,110
2018-05-18T06:15:30.637Z,115
2018-05-18T06:16:30.100Z,120
2018-05-18T06:17:30.816Z,115
2018-05-18T06:18:30.687Z,115
2018-05-18T06:19:30.447Z,115
2018-05-18T06:20:30.038Z,110
2018-05-18T06:21:30.052Z,120
2018-05-18T06:22:30.561Z,130
2018-05-18T06:23:30.520Z,130
2018-05-18T06:24:30.262Z,125
2018-05-18T06:25:30.229Z,120
2018-05-18T06:26:30.224Z,120
2018-05-18T06:27:29.940Z,115
2018-05-18T06:28:30.715Z,125
2018-05-18T06:29:30.181Z,135
2018-05-18T06:30:29.895Z,140
2018-05-18T06:31:30.408Z,145
2018-05-18T06:32:30.434Z,150
2018-05-18T06:33:29.857Z,150
2018-05-18T06:34:30.522Z,150
2018-05-18T06:35:30.356Z,155
2018-05-18T06:36:30.066Z,155
2018-05-18T06:37:29.789Z,155
2018-05-18T06:38:30.301Z,155
2018-05-18T06:39:30.293Z,155
2018-05-18T06:40:30.002Z,155
2018-05-18T06:41:30.555Z,160
2018-05-18T06:42:29.994Z,145
2018-05-18T06:43:30.493Z,140
2018-05-18T06:44:30.212Z,140
2018-05-18T06:45:30.486Z,150
2018-05-18T06:46:30.455Z,155
2018-05-18T06:47:29.919Z,155
2018-05-18T06:48:29.891Z,155
2018-05-18T06:49:29.915Z,155
2018-05-18T06:50:29.864Z,155
2018-05-18T06:51:29.853Z,155
2018-05-18T06:52:29.957Z,155
2018-05-18T06:53:29.835Z,155
2018-05-18T06:54:29.590Z,155
2018-05-18T06:55:29.794Z,160
2018-05-18T06:56:30.074Z,170
2018-05-18T06:57:30.046Z,165
2018-05-18T06:58:30.024Z,160
2018-05-18T06:59:29.953Z,160
2018-05-18T07:00:30.257Z,165
2018-05-18T07:01:29.451Z,170
2018-05-18T07:02:29.963Z,175
2018-05-18T07:03:29.677Z,180
2018-05-18T07:04:29.939Z,175
2018-05-18T07:05:30.189Z,170
2018-05-18T07:06:29.905Z,165
2018-05-18T07:07:30.158Z,165
2018-05-18T07:08:29.614Z,150
2018-05-18T07:09:29.871Z,135
2018-05-18T07:10:29.354Z,130
2018-05-18T07:11:29.577Z,125
2018-05-18T07:12:30.093Z,125
2018-05-18T07:13:29.886Z,135
2018-05-18T07:14:30.056Z,155
2018-05-18T07:15:29.508Z,135
2018-05-18T07:16:30.147Z,145
2018-05-18T07:17:30.035Z,150
2018-05-18T07:18:29.480Z,165
2018-05-18T07:19:29.460Z,190
2018-05-18T07:20:29.446Z,235
2018-05-18T07:21:29.434Z,245
2018-05-18T07:22:29.415Z,275
2018-05-18T07:23:29.928Z,250
2018-05-18T07:24:29.118Z,280
2018-05-18T07:25:29.374Z,660
2018-05-18T07:26:29.109Z,1015
2018-05-18T07:27:29.367Z,1125
2018-05-18T07:28:29.866Z,1135
2018-05-18T07:29:29.322Z,1140
2018-05-18T07:30:29.313Z,1160
2018-05-18T07:31:29.578Z,1190
2018-05-18T07:32:29.285Z,1175
2018-05-18T07:33:29.557Z,1105
2018-05-18T07:34:29.264Z,1090
2018-05-18T07:35:29.623Z,1130
2018-05-18T07:36:29.509Z,1175
2018-05-18T07:37:29.552Z,1200
2018-05-18T07:38:29.487Z,1225
2018-05-18T07:39:28.953Z,1230
2018-05-18T07:40:29.464Z,1180
2018-05-18T07:41:29.723Z,925
2018-05-18T07:42:28.932Z,280
2018-05-18T07:43:29.184Z,325
2018-05-18T07:44:29.436Z,275
2018-05-18T07:45:29.422Z,295
2018-05-18T07:46:29.418Z,420
2018-05-18T07:47:29.243Z,515
2018-05-18T07:48:28.880Z,1275
2018-05-18T07:49:29.137Z,1305
2018-05-18T07:50:29.389Z,1290
2018-05-18T07:51:29.110Z,375
2018-05-18T07:52:29.118Z,345
2018-05-18T07:53:29.182Z,1210
2018-05-18T07:54:29.362Z,1300
2018-05-18T07:55:28.811Z,1200
2018-05-18T07:56:29.337Z,1175
2018-05-18T07:57:29.603Z,1330
2018-05-18T07:58:29.132Z,1345
2018-05-18T07:59:29.135Z,995
2018-05-18T08:00:29.041Z,370
2018-05-18T08:01:29.044Z,390
2018-05-18T08:02:29.047Z,420
2018-05-18T08:03:29.025Z,245
2018-05-18T08:04:29.287Z,210
2018-05-18T08:05:29.279Z,220
2018-05-18T08:06:28.745Z,230
2018-05-18T08:07:29.007Z,220
2018-05-18T08:08:28.992Z,235
2018-05-18T08:09:28.987Z,220
2018-05-18T08:10:28.977Z,220
2018-05-18T08:11:28.702Z,240
2018-05-18T08:12:28.700Z,245
2018-05-18T08:13:29.225Z,240
2018-05-18T08:14:29.212Z,255
2018-05-18T08:15:28.693Z,255
2018-05-18T08:16:28.925Z,275
2018-05-18T08:17:28.867Z,410
2018-05-18T08:18:28.639Z,405
2018-05-18T08:19:29.422Z,345
2018-05-18T08:20:29.210Z,320
2018-05-18T08:21:29.023Z,1245
2018-05-18T08:22:29.140Z,580
2018-05-18T08:23:29.120Z,495
2018-05-18T08:24:28.590Z,305
2018-05-18T08:25:29.120Z,240
2018-05-18T08:26:28.826Z,395
2018-05-18T08:27:29.084Z,1245
2018-05-18T08:28:28.812Z,1460
2018-05-18T08:29:28.802Z,1290
2018-05-18T08:30:29.052Z,1130
2018-05-18T08:31:29.307Z,820
2018-05-18T08:32:29.043Z,705
2018-05-18T08:33:28.506Z,540
2018-05-18T08:34:28.757Z,385
2018-05-18T08:35:29.016Z,325
2018-05-18T08:36:28.205Z,320
2018-05-18T08:37:28.734Z,265
2018-05-18T08:38:28.993Z,245
2018-05-18T08:39:28.444Z,230
2018-05-18T08:40:29.003Z,235
2018-05-18T08:41:28.697Z,270
2018-05-18T08:42:28.955Z,285
2018-05-18T08:43:28.950Z,315
2018-05-18T08:44:28.843Z,285
2018-05-18T08:45:28.943Z,295
2018-05-18T08:46:29.170Z,285
2018-05-18T08:47:29.178Z,285
2018-05-18T08:48:28.628Z,265
2018-05-18T08:49:28.900Z,245
2018-05-18T08:50:28.971Z,240
2018-05-18T08:51:28.621Z,275
2018-05-18T08:52:28.067Z,335
2018-05-18T08:53:29.107Z,305
2018-05-18T08:54:28.560Z,290
2018-05-18T08:55:28.555Z,270
2018-05-18T08:56:29.097Z,250
2018-05-18T08:57:28.856Z,265
2018-05-18T08:58:28.538Z,280
2018-05-18T08:59:28.515Z,300
2018-05-18T09:00:28.507Z,320
2018-05-18T09:01:28.489Z,385
2018-05-18T09:02:29.012Z,395
2018-05-18T09:03:29.008Z,430
2018-05-18T09:04:28.211Z,435
2018-05-18T09:05:27.916Z,435
2018-05-18T09:06:28.448Z,400
2018-05-18T09:07:28.715Z,410
2018-05-18T09:08:28.154Z,400
2018-05-18T09:09:28.666Z,340
2018-05-18T09:10:28.669Z,320
2018-05-18T09:11:28.656Z,290
2018-05-18T09:12:28.651Z,260
2018-05-18T09:13:28.636Z,245
2018-05-18T09:14:28.358Z,255
2018-05-18T09:15:28.361Z,260
2018-05-18T09:16:28.346Z,230
2018-05-18T09:17:28.861Z,225
2018-05-18T09:18:28.855Z,215
2018-05-18T09:19:28.842Z,220
2018-05-18T09:20:28.555Z,225
2018-05-18T09:21:28.482Z,230
2018-05-18T09:22:28.542Z,240
2018-05-18T09:23:28.738Z,250
2018-05-18T09:24:28.261Z,285
2018-05-18T09:25:28.516Z,290
2018-05-18T09:26:28.761Z,320
2018-05-18T09:27:27.960Z,340
2018-05-18T09:28:28.240Z,320
2018-05-18T09:29:28.213Z,310
2018-05-18T09:30:28.192Z,340
2018-05-18T09:31:27.908Z,315
2018-05-18T09:32:28.155Z,305
2018-05-18T09:33:27.899Z,340
2018-05-18T09:34:28.604Z,340
2018-05-18T09:35:28.683Z,375
2018-05-18T09:36:28.669Z,420
2018-05-18T09:37:28.646Z,435
2018-05-18T09:38:28.368Z,440
2018-05-18T09:39:27.823Z,430
2018-05-18T09:40:28.542Z,445
2018-05-18T09:41:28.082Z,425
2018-05-18T09:42:28.055Z,365
2018-05-18T09:43:28.051Z,325
2018-05-18T09:44:28.300Z,330
2018-05-18T09:45:28.091Z,345
2018-05-18T09:46:28.020Z,330
2018-05-18T09:47:27.478Z,315
2018-05-18T09:48:27.994Z,345
2018-05-18T09:49:28.251Z,405
2018-05-18T09:50:28.231Z,390
2018-05-18T09:51:28.225Z,360
2018-05-18T09:52:27.948Z,380
2018-05-18T09:53:27.935Z,330
2018-05-18T09:54:29.455Z,280
2018-05-18T09:55:30.028Z,300
2018-05-18T09:56:27.910Z,300
2018-05-18T09:57:27.889Z,310
2018-05-18T09:58:27.615Z,280
2018-05-18T09:59:28.418Z,370
2018-05-18T10:00:28.140Z,350
2018-05-18T10:01:28.405Z,295
2018-05-18T10:02:27.859Z,320
2018-05-18T10:03:27.833Z,300
2018-05-18T10:04:27.771Z,290
2018-05-18T10:05:27.679Z,310
2018-05-18T10:06:28.086Z,295
2018-05-18T10:07:27.803Z,285
2018-05-18T10:08:28.052Z,280
2018-05-18T10:09:28.034Z,360
2018-05-18T10:10:27.491Z,345
2018-05-18T10:11:27.747Z,565
2018-05-18T10:12:28.506Z,300
2018-05-18T10:13:27.724Z,300
2018-05-18T10:14:27.455Z,545
2018-05-18T10:15:28.233Z,355
2018-05-18T10:16:27.951Z,515
2018-05-18T10:17:28.083Z,585
2018-05-18T10:18:27.482Z,755
2018-05-18T10:19:27.935Z,1645
2018-05-18T10:20:27.400Z,450
2018-05-18T10:21:27.387Z,1815
2018-05-18T10:22:27.643Z,1785
2018-05-18T10:23:27.638Z,1820
2018-05-18T10:24:27.637Z,1905
2018-05-18T10:25:27.082Z,2035
2018-05-18T10:26:27.340Z,2055
2018-05-18T10:27:27.604Z,1465
2018-05-18T10:28:27.326Z,900
2018-05-18T10:29:27.596Z,465
2018-05-18T10:30:27.593Z,565
2018-05-18T10:31:27.854Z,2045
2018-05-18T10:32:27.847Z,875
2018-05-18T10:33:27.845Z,745
2018-05-18T10:34:28.103Z,545
2018-05-18T10:35:27.828Z,595
2018-05-18T10:36:27.556Z,2095
2018-05-18T10:37:27.290Z,1210
2018-05-18T10:38:27.818Z,460
2018-05-18T10:39:27.543Z,460
2018-05-18T10:40:27.539Z,720
2018-05-18T10:41:27.261Z,1225
2018-05-18T10:42:27.533Z,1080
2018-05-18T10:43:27.519Z,530
2018-05-18T10:44:27.243Z,1555
2018-05-18T10:45:28.509Z,1895
2018-05-18T10:46:27.499Z,1475
2018-05-18T10:47:27.231Z,2030
2018-05-18T10:48:27.501Z,530
2018-05-18T10:49:28.080Z,505
2018-05-18T10:50:27.745Z,1985
2018-05-18T10:51:26.942Z,1875
2018-05-18T10:52:27.479Z,920
2018-05-18T10:53:27.205Z,810
2018-05-18T10:54:27.728Z,1445
2018-05-18T10:55:27.739Z,1765
2018-05-18T10:56:27.728Z,1575
2018-05-18T10:57:27.720Z,495
2018-05-18T10:58:27.198Z,2150
2018-05-18T10:59:27.453Z,535
2018-05-18T11:00:27.711Z,635
2018-05-18T11:01:27.440Z,1240
2018-05-18T11:02:27.175Z,485
2018-05-18T11:03:27.700Z,395
2018-05-18T11:04:27.695Z,1630
2018-05-18T11:05:27.987Z,1930
2018-05-18T11:06:27.162Z,1940
2018-05-18T11:07:27.691Z,1930
2018-05-18T11:08:27.684Z,2060
2018-05-18T11:09:27.425Z,1005
2018-05-18T11:10:27.151Z,615
2018-05-18T11:11:27.424Z,845
2018-05-18T11:12:27.680Z,1895
2018-05-18T11:13:27.421Z,1115
2018-05-18T11:14:28.075Z,1950
2018-05-18T11:15:27.939Z,745
2018-05-18T11:16:27.137Z,1650
2018-05-18T11:17:27.928Z,1700
2018-05-18T11:18:27.669Z,1715
2018-05-18T11:19:27.127Z,1790
2018-05-18T11:20:26.855Z,1885
2018-05-18T11:21:27.917Z,1965
2018-05-18T11:22:26.851Z,2010
2018-05-18T11:23:27.126Z,2040
2018-05-18T11:24:27.650Z,2045
2018-05-18T11:25:27.919Z,1890
2018-05-18T11:26:27.669Z,1815
2018-05-18T11:27:27.412Z,995
2018-05-18T11:28:27.657Z,1840
2018-05-18T11:29:27.117Z,1870
2018-05-18T11:30:27.651Z,1920
2018-05-18T11:31:27.646Z,1905
2018-05-18T11:32:27.443Z,1865
2018-05-18T11:33:27.916Z,1905
2018-05-18T11:34:27.659Z,1955
2018-05-18T11:35:27.920Z,1980
2018-05-18T11:36:27.672Z,2010
2018-05-18T11:37:27.403Z,1995
2018-05-18T11:38:27.403Z,1875
2018-05-18T11:39:27.927Z,1815
2018-05-18T11:40:27.675Z,1820
2018-05-18T11:41:27.683Z,1725
2018-05-18T11:42:27.951Z,1820
2018-05-18T11:43:27.992Z,1885
2018-05-18T11:44:27.408Z,1925
2018-05-18T11:45:27.411Z,1990
2018-05-18T11:46:27.980Z,1990
2018-05-18T11:47:27.699Z,1990
2018-05-18T11:48:27.431Z,1975
2018-05-18T11:49:27.422Z,1955
2018-05-18T11:50:27.421Z,1940
2018-05-18T11:51:27.700Z,1935
2018-05-18T11:52:27.966Z,1945
2018-05-18T11:53:28.007Z,1975
2018-05-18T11:54:27.165Z,1965
2018-05-18T11:55:26.910Z,1960
2018-05-18T11:56:27.454Z,1750
2018-05-18T11:57:27.180Z,1860
2018-05-18T11:58:27.730Z,1810
2018-05-18T11:59:27.977Z,535
2018-05-18T12:00:27.720Z,1870
2018-05-18T12:01:27.458Z,1920
2018-05-18T12:02:27.361Z,1990
2018-05-18T12:03:27.750Z,1965
2018-05-18T12:04:27.472Z,1960
2018-05-18T12:05:27.745Z,1925
2018-05-18T12:06:27.741Z,1960
2018-05-18T12:07:27.755Z,1815
2018-05-18T12:08:28.138Z,1975
2018-05-18T12:09:27.504Z,1980
2018-05-18T12:10:27.487Z,1995
2018-05-18T12:11:27.533Z,1940
2018-05-18T12:12:27.252Z,1865
2018-05-18T12:13:27.781Z,1985
2018-05-18T12:14:27.534Z,2035
2018-05-18T12:15:26.993Z,2035
2018-05-18T12:16:27.522Z,1990
2018-05-18T12:17:27.923Z,1900
2018-05-18T12:18:27.790Z,1835
2018-05-18T12:19:27.787Z,1820
2018-05-18T12:20:27.733Z,1835
2018-05-18T12:21:27.549Z,1860
2018-05-18T12:22:27.798Z,1885
2018-05-18T12:23:27.819Z,1890
2018-05-18T12:24:28.293Z,1325
2018-05-18T12:25:27.309Z,1955
2018-05-18T12:26:27.836Z,1970
2018-05-18T12:27:27.566Z,1975
2018-05-18T12:28:27.307Z,1950
2018-05-18T12:29:28.170Z,1920
2018-05-18T12:30:27.309Z,1950
2018-05-18T12:31:28.152Z,1965
2018-05-18T12:32:27.850Z,1960
2018-05-18T12:33:27.050Z,1965
2018-05-18T12:34:27.851Z,1990
2018-05-18T12:35:27.863Z,1930
2018-05-18T12:36:27.593Z,1965
2018-05-18T12:37:27.866Z,1780
2018-05-18T12:38:27.995Z,1580
2018-05-18T12:39:27.602Z,1090
2018-05-18T12:40:27.623Z,1895
2018-05-18T12:41:27.621Z,1860
2018-05-18T12:42:28.149Z,1880
2018-05-18T12:43:27.889Z,1795
2018-05-18T12:44:28.393Z,1925
2018-05-18T12:45:27.909Z,1840
2018-05-18T12:46:27.905Z,1815
2018-05-18T12:47:27.386Z,1795
2018-05-18T12:48:27.644Z,1770
2018-05-18T12:49:27.654Z,1765
2018-05-18T12:50:28.170Z,1790
2018-05-18T12:51:27.648Z,1740
2018-05-18T12:52:28.216Z,1765
2018-05-18T12:53:28.194Z,1760
2018-05-18T12:54:27.938Z,1770
2018-05-18T12:55:28.194Z,1755
2018-05-18T12:56:27.946Z,1740
2018-05-18T12:57:28.216Z,1805
2018-05-18T12:58:27.413Z,1745
2018-05-18T12:59:28.289Z,1735
2018-05-18T13:00:28.215Z,1735
2018-05-18T13:01:27.709Z,1780
2018-05-18T13:02:27.968Z,1775
2018-05-18T13:03:27.973Z,1845
2018-05-18T13:04:27.701Z,1745
2018-05-18T13:05:27.716Z,1730
2018-05-18T13:06:27.705Z,1645
2018-05-18T13:07:27.725Z,1660
2018-05-18T13:08:27.739Z,1695
2018-05-18T13:09:27.733Z,1580
2018-05-18T13:10:27.993Z,1660
2018-05-18T13:11:28.009Z,1575
2018-05-18T13:12:27.729Z,1590
2018-05-18T13:13:27.741Z,1550
2018-05-18T13:14:28.009Z,600
2018-05-18T13:15:28.236Z,1635
2018-05-18T13:16:27.483Z,1685
2018-05-18T13:17:28.029Z,1640
2018-05-18T13:18:27.523Z,1725
2018-05-18T13:19:28.297Z,1810
2018-05-18T13:20:27.502Z,1840
2018-05-18T13:21:27.780Z,1820
2018-05-18T13:22:28.298Z,1815
2018-05-18T13:23:28.049Z,1665
2018-05-18T13:24:28.075Z,1680
2018-05-18T13:25:27.805Z,1600
2018-05-18T13:26:27.791Z,1485
2018-05-18T13:27:27.531Z,1440
2018-05-18T13:28:27.809Z,1360
2018-05-18T13:29:28.056Z,1430
2018-05-18T13:30:27.585Z,1470
2018-05-18T13:31:27.605Z,1445
2018-05-18T13:32:28.356Z,915
2018-05-18T13:33:27.803Z,1400
2018-05-18T13:34:28.341Z,1345
2018-05-18T13:35:28.346Z,1380
2018-05-18T13:36:27.282Z,1235
2018-05-18T13:37:27.565Z,985
2018-05-18T13:38:27.854Z,1385
2018-05-18T13:39:28.119Z,1365
2018-05-18T13:40:28.364Z,1475
2018-05-18T13:41:27.595Z,1390
2018-05-18T13:42:28.367Z,1410
2018-05-18T13:43:28.365Z,1385
2018-05-18T13:44:28.107Z,1295
2018-05-18T13:45:28.372Z,1295
2018-05-18T13:46:27.846Z,1350
2018-05-18T13:47:28.117Z,1240
2018-05-18T13:48:28.375Z,1240
2018-05-18T13:49:27.862Z,1300
2018-05-18T13:50:27.867Z,1280
2018-05-18T13:51:28.385Z,1415
2018-05-18T13:52:27.852Z,1465
2018-05-18T13:53:27.602Z,1560
2018-05-18T13:54:28.394Z,1470
2018-05-18T13:55:27.869Z,1475
2018-05-18T13:56:28.127Z,1420
2018-05-18T13:57:28.136Z,1335
2018-05-18T13:58:27.873Z,1300
2018-05-18T13:59:27.615Z,1195